Time;durP1;ratioP1;P1;durP2;ratioP2;P2;SDS_P1;SDS_P2;PMS_P1;PMS_P2;Temp;Humidity;BMP_temperature;BMP_pressure;BME280_temperature;BME280_humidity;BME280_pressure;Samples;Min_cycle;Max_cycle;Signal;HPM_P1;HPM_P2
2022/01/09 00:01:50;;;;;;;7.00;2.92;;;;;;;;;;4944676;28;20034;-78
2022/01/09 00:04:16;;;;;;;6.13;3.63;;;;;;;;;;4951766;28;20267;-78
2022/01/09 00:06:42;;;;;;;8.45;4.28;;;;;;;;;;4956393;28;20416;-78
2022/01/09 00:09:08;;;;;;;7.55;4.55;;;;;;;;;;4939072;28;20027;-78
2022/01/09 00:11:34;;;;;;;6.32;3.97;;;;;;;;;;4953350;28;20533;-78
2022/01/09 00:14:00;;;;;;;4.97;2.47;;;;;;;;;;4937891;28;20455;-78
2022/01/09 00:16:26;;;;;;;3.85;1.83;;;;;;;;;;4937254;28;20098;-78
2022/01/09 00:18:52;;;;;;;5.30;3.40;;;;;;;;;;4956347;28;20054;-78
2022/01/09 00:21:19;;;;;;;4.53;2.70;;;;;;;;;;4954502;28;20102;-78
2022/01/09 00:23:45;;;;;;;8.18;4.60;;;;;;;;;;4939888;28;20054;-78
2022/01/09 00:26:12;;;;;;;6.90;3.90;;;;;;;;;;4932467;28;20057;-78
2022/01/09 00:28:38;;;;;;;8.15;4.95;;;;;;;;;;4947035;28;20038;-78
2022/01/09 00:31:04;;;;;;;4.45;2.50;;;;;;;;;;4938352;28;20403;-78
2022/01/09 00:33:30;;;;;;;8.75;4.82;;;;;;;;;;4944400;28;20031;-78
2022/01/09 00:35:56;;;;;;;5.05;3.50;;;;;;;;;;4939519;28;20038;-78
2022/01/09 00:38:22;;;;;;;5.53;2.97;;;;;;;;;;4942742;28;20039;-78
2022/01/09 00:40:48;;;;;;;2.42;2.05;;;;;;;;;;4962791;28;20031;-78
2022/01/09 00:43:14;;;;;;;6.80;4.18;;;;;;;;;;4938580;28;20024;-78
2022/01/09 00:45:41;;;;;;;7.65;4.80;;;;;;;;;;4940346;28;20484;-78
2022/01/09 00:48:08;;;;;;;9.63;4.55;;;;;;;;;;4941710;28;20031;-78
2022/01/09 00:50:36;;;;;;;4.75;3.47;;;;;;;;;;4938732;28;20450;-78
2022/01/09 00:53:03;;;;;;;7.25;4.30;;;;;;;;;;4955683;28;20054;-78
2022/01/09 00:55:29;;;;;;;3.20;2.50;;;;;;;;;;4940752;28;20056;-78
2022/01/09 00:57:55;;;;;;;8.00;4.43;;;;;;;;;;4916912;28;20062;-78
2022/01/09 01:00:21;;;;;;;6.43;4.25;;;;;;;;;;4937447;28;20071;-78
2022/01/09 01:02:48;;;;;;;5.00;2.75;;;;;;;;;;4917268;29;20613;-78
2022/01/09 01:05:14;;;;;;;6.22;3.13;;;;;;;;;;4930448;28;20035;-77
2022/01/09 01:07:40;;;;;;;3.45;2.28;;;;;;;;;;4938320;28;20035;-78
2022/01/09 01:10:07;;;;;;;5.70;3.67;;;;;;;;;;4918167;29;20384;-77
2022/01/09 01:12:33;;;;;;;9.93;4.70;;;;;;;;;;4940305;28;20517;-78
2022/01/09 01:14:59;;;;;;;3.75;2.65;;;;;;;;;;4930578;28;20040;-78
2022/01/09 01:17:25;;;;;;;9.52;4.38;;;;;;;;;;4922159;28;20038;-78
2022/01/09 01:19:53;;;;;;;6.68;4.20;;;;;;;;;;4928454;28;20035;-78
2022/01/09 01:22:19;;;;;;;5.60;3.63;;;;;;;;;;4922629;28;20439;-77
2022/01/09 01:24:46;;;;;;;5.43;3.78;;;;;;;;;;4939618;28;20051;-78
2022/01/09 01:27:12;;;;;;;10.73;4.93;;;;;;;;;;4923667;29;20471;-78
2022/01/09 01:29:39;;;;;;;8.95;5.03;;;;;;;;;;4928357;29;20476;-78
2022/01/09 01:32:05;;;;;;;10.05;5.20;;;;;;;;;;4937162;28;20032;-78
2022/01/09 01:34:33;;;;;;;6.63;4.00;;;;;;;;;;4929598;29;20046;-78
2022/01/09 01:36:59;;;;;;;9.35;4.35;;;;;;;;;;4919786;28;20046;-78
2022/01/09 01:39:25;;;;;;;9.80;4.65;;;;;;;;;;4929134;29;20036;-78
2022/01/09 01:41:51;;;;;;;7.85;4.80;;;;;;;;;;4923496;28;20081;-78
2022/01/09 01:44:17;;;;;;;15.93;4.97;;;;;;;;;;4929729;28;20039;-78
2022/01/09 01:46:43;;;;;;;7.90;4.80;;;;;;;;;;4917981;28;20383;-78
2022/01/09 01:49:11;;;;;;;8.02;4.78;;;;;;;;;;4920062;28;20055;-78
2022/01/09 01:51:42;;;;;;;8.80;4.85;;;;;;;;;;4944491;28;20479;-78
2022/01/09 01:54:22;;;;;;;7.18;4.10;;;;;;;;;;4927615;28;20496;-78
2022/01/09 01:56:48;;;;;;;7.88;4.70;;;;;;;;;;4927317;28;20496;-78
2022/01/09 01:59:14;;;;;;;6.80;3.25;;;;;;;;;;4932328;28;20043;-78
2022/01/09 02:01:40;;;;;;;11.25;4.60;;;;;;;;;;4942119;28;20106;-77
2022/01/09 02:04:06;;;;;;;7.25;4.35;;;;;;;;;;4932964;28;20072;-79
2022/01/09 02:06:34;;;;;;;13.13;5.45;;;;;;;;;;4921306;28;20030;-78
2022/01/09 02:09:00;;;;;;;8.65;5.22;;;;;;;;;;4938047;28;20106;-79
2022/01/09 02:11:26;;;;;;;9.68;5.22;;;;;;;;;;4916503;29;20043;-78
2022/01/09 02:13:52;;;;;;;7.15;4.30;;;;;;;;;;4937979;28;20534;-79
2022/01/09 02:16:18;;;;;;;7.63;5.07;;;;;;;;;;4919018;29;20183;-78
2022/01/09 02:18:48;;;;;;;7.55;4.70;;;;;;;;;;4924782;29;20043;-78
2022/01/09 02:21:15;;;;;;;12.02;5.25;;;;;;;;;;4918276;29;20023;-79
2022/01/09 02:23:44;;;;;;;8.27;4.93;;;;;;;;;;4943348;28;20581;-78
2022/01/09 02:26:10;;;;;;;8.98;5.35;;;;;;;;;;4918971;28;20031;-79
2022/01/09 02:28:36;;;;;;;10.10;5.22;;;;;;;;;;4926463;28;20062;-79
2022/01/09 02:31:02;;;;;;;9.63;5.40;;;;;;;;;;4936385;28;20119;-79
2022/01/09 02:33:28;;;;;;;8.25;5.25;;;;;;;;;;4920233;29;20043;-78
2022/01/09 02:35:56;;;;;;;10.23;5.32;;;;;;;;;;4925701;29;20044;-78
2022/01/09 02:38:22;;;;;;;18.40;6.35;;;;;;;;;;4935394;28;20030;-78
2022/01/09 02:40:52;;;;;;;9.68;5.07;;;;;;;;;;4924618;28;20476;-78
2022/01/09 02:43:19;;;;;;;9.27;5.60;;;;;;;;;;4915352;28;20157;-78
2022/01/09 02:45:49;;;;;;;8.05;4.72;;;;;;;;;;4932421;28;20063;-78
2022/01/09 02:48:15;;;;;;;9.50;5.78;;;;;;;;;;4923136;28;20042;-78
2022/01/09 02:50:53;;;;;;;8.18;4.25;;;;;;;;;;4937479;28;20394;-78
2022/01/09 02:53:21;;;;;;;5.03;2.50;;;;;;;;;;4938861;28;20416;-78
2022/01/09 02:55:47;;;;;;;3.83;1.85;;;;;;;;;;4944975;28;20465;-78
2022/01/09 02:58:14;;;;;;;13.00;3.42;;;;;;;;;;4958932;28;20034;-78
2022/01/09 03:00:42;;;;;;;1.58;1.17;;;;;;;;;;4939180;28;20042;-78
2022/01/09 03:03:08;;;;;;;3.90;2.33;;;;;;;;;;4941566;28;20111;-78
2022/01/09 03:05:34;;;;;;;2.05;1.58;;;;;;;;;;4953642;28;20031;-79
2022/01/09 03:08:00;;;;;;;2.20;1.40;;;;;;;;;;4945582;28;20059;-78
2022/01/09 03:10:27;;;;;;;6.40;2.53;;;;;;;;;;4941074;28;20577;-78
2022/01/09 03:12:55;;;;;;;9.35;1.60;;;;;;;;;;4943125;28;20479;-79
2022/01/09 03:15:21;;;;;;;2.45;1.13;;;;;;;;;;4946207;28;20034;-79
2022/01/09 03:17:47;;;;;;;10.85;2.33;;;;;;;;;;4941782;28;20057;-78
2022/01/09 03:20:18;;;;;;;13.55;2.45;;;;;;;;;;4941235;28;20211;-79
2022/01/09 03:22:44;;;;;;;5.13;1.50;;;;;;;;;;4953260;28;20026;-78
2022/01/09 03:25:11;;;;;;;3.28;0.82;;;;;;;;;;4958162;28;20034;-78
2022/01/09 03:27:38;;;;;;;3.08;1.42;;;;;;;;;;4951518;28;20046;-78
2022/01/09 03:30:05;;;;;;;3.88;0.50;;;;;;;;;;4955100;28;20054;-78
2022/01/09 03:32:31;;;;;;;5.05;1.40;;;;;;;;;;4951345;28;20023;-78
2022/01/09 03:34:57;;;;;;;8.20;1.15;;;;;;;;;;4958052;28;20454;-78
2022/01/09 03:37:23;;;;;;;3.78;1.65;;;;;;;;;;4933233;28;20031;-78
2022/01/09 03:39:49;;;;;;;0.35;0.35;;;;;;;;;;4942750;28;20483;-78
2022/01/09 03:42:15;;;;;;;9.15;0.93;;;;;;;;;;4957352;28;20035;-78
2022/01/09 03:44:41;;;;;;;4.30;0.30;;;;;;;;;;4940130;28;20587;-78
2022/01/09 03:47:07;;;;;;;8.13;0.60;;;;;;;;;;4937443;28;20046;-78
2022/01/09 03:49:33;;;;;;;3.03;1.30;;;;;;;;;;4952949;28;20031;-78
2022/01/09 03:52:00;;;;;;;2.58;1.83;;;;;;;;;;4963484;28;20031;-78
2022/01/09 03:54:26;;;;;;;8.48;0.85;;;;;;;;;;4945170;28;20116;-78
2022/01/09 03:56:53;;;;;;;6.65;1.27;;;;;;;;;;4945742;28;20058;-78
2022/01/09 03:59:19;;;;;;;3.05;0.75;;;;;;;;;;4917137;28;20034;-78
2022/01/09 04:01:45;;;;;;;8.55;1.40;;;;;;;;;;4938227;28;20038;-78
2022/01/09 04:04:12;;;;;;;7.35;1.02;;;;;;;;;;4923471;28;20570;-78
2022/01/09 04:06:50;;;;;;;0.47;0.20;;;;;;;;;;4922523;28;20028;-78
2022/01/09 04:12:03;;;;;;;14.55;1.85;;;;;;;;;;4936657;28;20047;-79
2022/01/09 04:14:29;;;;;;;10.05;2.40;;;;;;;;;;4922268;28;20489;-78
2022/01/09 04:16:56;;;;;;;8.75;1.30;;;;;;;;;;4923719;29;20050;-78
2022/01/09 04:19:22;;;;;;;1.23;0.45;;;;;;;;;;4922295;28;20507;-78
2022/01/09 04:21:48;;;;;;;15.48;2.05;;;;;;;;;;4937031;28;20041;-78
2022/01/09 04:24:14;;;;;;;7.45;0.65;;;;;;;;;;4913911;28;20399;-79
2022/01/09 04:26:40;;;;;;;17.48;2.67;;;;;;;;;;4922564;28;20088;-79
2022/01/09 04:29:06;;;;;;;14.25;2.08;;;;;;;;;;4917409;29;20043;-79
2022/01/09 04:31:32;;;;;;;12.65;1.33;;;;;;;;;;4922349;28;20032;-79
2022/01/09 04:33:58;;;;;;;0.43;0.30;;;;;;;;;;4916016;28;20127;-78
2022/01/09 04:36:25;;;;;;;13.90;2.38;;;;;;;;;;4918287;28;20040;-79
2022/01/09 04:38:52;;;;;;;24.55;1.58;;;;;;;;;;4920142;29;20027;-78
2022/01/09 04:41:18;;;;;;;20.27;0.45;;;;;;;;;;4928095;29;20043;-79
2022/01/09 04:43:45;;;;;;;5.78;1.27;;;;;;;;;;4919310;28;20020;-79
2022/01/09 04:46:17;;;;;;;3.95;1.13;;;;;;;;;;4919108;28;20116;-79
2022/01/09 04:48:45;;;;;;;5.18;1.67;;;;;;;;;;4935004;28;20023;-79
2022/01/09 04:51:13;;;;;;;6.70;1.27;;;;;;;;;;4935911;28;20169;-79
2022/01/09 04:53:40;;;;;;;14.15;1.27;;;;;;;;;;4919997;29;20034;-78
2022/01/09 04:56:13;;;;;;;0.93;0.22;;;;;;;;;;4926507;28;20134;-78
2022/01/09 04:58:39;;;;;;;23.58;2.80;;;;;;;;;;4922190;28;20038;-78
2022/01/09 05:01:05;;;;;;;15.70;2.05;;;;;;;;;;4931248;28;20494;-79
2022/01/09 05:03:31;;;;;;;28.60;1.48;;;;;;;;;;4922598;29;20034;-78
2022/01/09 05:05:57;;;;;;;23.33;2.63;;;;;;;;;;4916021;28;20072;-78
2022/01/09 05:08:23;;;;;;;14.90;1.40;;;;;;;;;;4937882;28;20114;-79
2022/01/09 05:10:49;;;;;;;16.17;1.85;;;;;;;;;;4926073;29;20043;-79
2022/01/09 05:13:15;;;;;;;10.23;2.03;;;;;;;;;;4927892;28;20071;-78
2022/01/09 05:15:42;;;;;;;5.90;0.95;;;;;;;;;;4916769;29;20039;-79
2022/01/09 05:18:13;;;;;;;9.98;0.90;;;;;;;;;;4920092;29;20501;-78
2022/01/09 05:20:40;;;;;;;7.32;1.02;;;;;;;;;;4921013;29;20109;-79
2022/01/09 05:23:06;;;;;;;17.88;1.98;;;;;;;;;;4921085;29;20043;-78
2022/01/09 05:25:32;;;;;;;3.80;1.60;;;;;;;;;;4936521;28;20024;-78
2022/01/09 05:27:58;;;;;;;6.65;2.58;;;;;;;;;;4915895;29;20489;-78
2022/01/09 05:30:24;;;;;;;9.35;0.95;;;;;;;;;;4918819;28;20076;-79
2022/01/09 05:32:50;;;;;;;0.75;0.40;;;;;;;;;;4935275;28;20109;-78
2022/01/09 05:35:16;;;;;;;18.63;1.98;;;;;;;;;;4920600;29;20039;-79
2022/01/09 05:37:42;;;;;;;18.60;1.27;;;;;;;;;;4937740;28;20049;-78
2022/01/09 05:40:09;;;;;;;1.55;0.52;;;;;;;;;;4918460;29;20507;-79
2022/01/09 05:42:35;;;;;;;9.30;1.73;;;;;;;;;;4918509;29;20039;-78
2022/01/09 05:45:03;;;;;;;0.88;0.60;;;;;;;;;;4916003;29;20032;-79
2022/01/09 05:47:29;;;;;;;27.30;1.92;;;;;;;;;;4939072;28;20035;-78
2022/01/09 05:49:55;;;;;;;6.03;1.60;;;;;;;;;;4929087;28;20385;-78
2022/01/09 05:52:21;;;;;;;18.13;1.25;;;;;;;;;;4938891;28;20047;-79
2022/01/09 05:54:48;;;;;;;1.77;0.43;;;;;;;;;;4921149;29;20040;-79
2022/01/09 05:57:14;;;;;;;4.78;1.13;;;;;;;;;;4938693;28;20042;-79
2022/01/09 05:59:40;;;;;;;28.08;2.13;;;;;;;;;;4943246;28;20054;-78
2022/01/09 06:02:06;;;;;;;14.95;1.50;;;;;;;;;;4959856;28;20630;-79
2022/01/09 06:04:32;;;;;;;1.98;0.52;;;;;;;;;;4945573;28;20031;-79
2022/01/09 06:06:58;;;;;;;13.57;0.43;;;;;;;;;;4943853;28;20045;-79
2022/01/09 06:09:25;;;;;;;19.08;2.05;;;;;;;;;;4958977;28;20034;-79
2022/01/09 06:11:51;;;;;;;0.13;0.13;;;;;;;;;;4957864;28;20446;-79
2022/01/09 06:14:17;;;;;;;9.93;1.63;;;;;;;;;;4959697;28;20039;-79
2022/01/09 06:16:43;;;;;;;18.73;0.80;;;;;;;;;;4937291;28;20113;-80
2022/01/09 06:19:10;;;;;;;4.97;0.77;;;;;;;;;;4954868;28;20214;-80
2022/01/09 06:21:36;;;;;;;10.80;0.57;;;;;;;;;;4945143;28;20198;-79
2022/01/09 06:24:02;;;;;;;2.33;0.80;;;;;;;;;;4945964;28;20506;-79
2022/01/09 06:26:28;;;;;;;17.60;1.85;;;;;;;;;;4963037;28;20492;-79
2022/01/09 06:28:54;;;;;;;18.08;2.00;;;;;;;;;;4942607;28;20285;-79
2022/01/09 06:31:20;;;;;;;11.48;2.47;;;;;;;;;;4962625;28;20399;-79
2022/01/09 06:33:46;;;;;;;6.78;1.60;;;;;;;;;;4944519;28;20031;-79
2022/01/09 06:36:12;;;;;;;38.95;3.42;;;;;;;;;;4944546;28;20054;-79
2022/01/09 06:38:38;;;;;;;5.53;1.50;;;;;;;;;;4938226;28;20503;-79
2022/01/09 06:41:05;;;;;;;23.33;2.85;;;;;;;;;;4959410;28;20519;-79
2022/01/09 06:43:31;;;;;;;44.95;4.13;;;;;;;;;;4938642;28;20053;-79
2022/01/09 06:45:57;;;;;;;17.83;2.25;;;;;;;;;;4958091;28;20463;-79
2022/01/09 06:48:23;;;;;;;34.20;3.15;;;;;;;;;;4948315;28;20027;-79
2022/01/09 06:50:49;;;;;;;20.45;3.00;;;;;;;;;;4959186;28;20376;-79
2022/01/09 06:53:15;;;;;;;23.15;3.15;;;;;;;;;;4944660;28;20071;-79
2022/01/09 06:55:43;;;;;;;32.33;2.97;;;;;;;;;;4960445;28;20471;-79
2022/01/09 06:58:09;;;;;;;45.35;3.50;;;;;;;;;;4938934;28;20452;-79
2022/01/09 07:00:35;;;;;;;21.33;2.28;;;;;;;;;;4956919;28;20026;-79
2022/01/09 07:03:01;;;;;;;17.38;2.78;;;;;;;;;;4946231;28;20035;-79
2022/01/09 07:05:27;;;;;;;26.60;2.90;;;;;;;;;;4957661;28;20027;-79
2022/01/09 07:07:53;;;;;;;28.35;2.97;;;;;;;;;;4939617;28;20086;-79
2022/01/09 07:10:19;;;;;;;32.35;2.38;;;;;;;;;;4941772;28;20163;-79
2022/01/09 07:12:52;;;;;;;27.88;3.15;;;;;;;;;;4939251;28;20114;-79
2022/01/09 07:15:18;;;;;;;54.35;4.05;;;;;;;;;;4956556;28;20035;-79
2022/01/09 07:17:44;;;;;;;21.48;3.95;;;;;;;;;;4944232;28;20075;-79
2022/01/09 07:20:10;;;;;;;24.05;3.30;;;;;;;;;;4945527;28;20555;-78
2022/01/09 07:22:36;;;;;;;22.05;3.65;;;;;;;;;;4937192;28;20031;-79
2022/01/09 07:25:02;;;;;;;29.17;3.63;;;;;;;;;;4943197;28;20510;-79
2022/01/09 07:27:28;;;;;;;21.20;3.38;;;;;;;;;;4938941;28;20034;-79
2022/01/09 07:29:54;;;;;;;28.00;3.40;;;;;;;;;;4941784;28;20031;-79
2022/01/09 07:32:20;;;;;;;15.70;2.20;;;;;;;;;;4948241;28;20402;-79
2022/01/09 07:34:46;;;;;;;34.90;3.70;;;;;;;;;;4943262;28;20659;-79
2022/01/09 07:37:12;;;;;;;27.60;2.47;;;;;;;;;;4930563;28;20038;-79
2022/01/09 07:39:38;;;;;;;27.20;4.00;;;;;;;;;;4950099;28;20391;-79
2022/01/09 07:42:05;;;;;;;21.88;2.97;;;;;;;;;;4942589;28;20031;-79
2022/01/09 07:44:31;;;;;;;27.25;3.13;;;;;;;;;;4933997;28;20068;-79
2022/01/09 07:46:57;;;;;;;31.92;3.88;;;;;;;;;;4960440;28;20141;-79
2022/01/09 07:49:23;;;;;;;13.80;2.38;;;;;;;;;;4940844;28;20114;-80
2022/01/09 07:51:50;;;;;;;25.98;2.65;;;;;;;;;;4956623;28;20082;-79
2022/01/09 07:54:16;;;;;;;35.22;3.78;;;;;;;;;;4950214;28;20387;-79
2022/01/09 07:56:42;;;;;;;17.23;2.92;;;;;;;;;;4943681;28;20070;-78
2022/01/09 07:59:08;;;;;;;28.73;3.60;;;;;;;;;;4954341;28;20035;-79
2022/01/09 08:01:34;;;;;;;26.35;7.68;;;;;;;;;;4946107;28;20238;-79
2022/01/09 08:04:00;;;;;;;28.77;4.30;;;;;;;;;;4945635;28;20499;-79
2022/01/09 08:06:26;;;;;;;20.15;3.42;;;;;;;;;;4937695;28;20069;-78
2022/01/09 08:08:52;;;;;;;26.55;2.65;;;;;;;;;;4958394;28;20029;-79
2022/01/09 08:11:18;;;;;;;26.38;3.13;;;;;;;;;;4955852;28;20105;-79
2022/01/09 08:13:44;;;;;;;22.55;3.75;;;;;;;;;;4942173;28;20058;-78
2022/01/09 08:16:10;;;;;;;31.75;4.53;;;;;;;;;;4940012;28;20420;-79
2022/01/09 08:18:37;;;;;;;23.25;3.50;;;;;;;;;;4941268;28;20031;-79
2022/01/09 08:21:02;;;;;;;19.80;2.80;;;;;;;;;;4938267;28;20027;-78
2022/01/09 08:23:28;;;;;;;18.83;3.38;;;;;;;;;;4942718;28;20046;-79
2022/01/09 08:25:55;;;;;;;25.92;3.53;;;;;;;;;;4939744;28;20035;-79
2022/01/09 08:28:20;;;;;;;26.23;3.58;;;;;;;;;;4948897;28;20087;-78
2022/01/09 08:30:46;;;;;;;21.50;2.63;;;;;;;;;;4942125;28;20224;-79
2022/01/09 08:33:12;;;;;;;10.18;1.88;;;;;;;;;;4955855;28;21953;-79
2022/01/09 08:35:39;;;;;;;27.10;5.32;;;;;;;;;;4954379;28;20038;-78
2022/01/09 08:38:05;;;;;;;22.95;3.25;;;;;;;;;;4955143;28;20054;-79
2022/01/09 08:40:31;;;;;;;22.73;3.25;;;;;;;;;;4946828;28;20568;-79
2022/01/09 08:42:57;;;;;;;23.38;3.40;;;;;;;;;;4933998;28;20751;-79
2022/01/09 08:45:23;;;;;;;21.25;3.03;;;;;;;;;;4937891;28;20046;-79
2022/01/09 08:47:50;;;;;;;8.32;2.05;;;;;;;;;;4941033;28;20023;-79
2022/01/09 08:50:18;;;;;;;21.27;3.05;;;;;;;;;;4939558;28;20469;-78
2022/01/09 08:52:45;;;;;;;26.17;3.20;;;;;;;;;;4938910;28;20032;-78
2022/01/09 08:55:11;;;;;;;21.90;2.60;;;;;;;;;;4938338;28;20040;-78
2022/01/09 08:57:37;;;;;;;32.78;3.42;;;;;;;;;;4943022;28;20047;-79
2022/01/09 09:00:04;;;;;;;11.13;2.45;;;;;;;;;;4920365;28;20039;-79
2022/01/09 09:02:30;;;;;;;16.00;2.08;;;;;;;;;;4919968;29;20472;-79
2022/01/09 09:04:56;;;;;;;18.20;2.75;;;;;;;;;;4935872;28;20067;-79
2022/01/09 09:07:24;;;;;;;17.65;3.55;;;;;;;;;;4924838;29;20035;-79
2022/01/09 09:09:53;;;;;;;8.43;1.90;;;;;;;;;;4916547;28;20542;-78
2022/01/09 09:12:20;;;;;;;18.23;2.70;;;;;;;;;;4923948;28;20075;-79
2022/01/09 09:14:49;;;;;;;24.58;2.88;;;;;;;;;;4941365;28;20493;-79
2022/01/09 09:17:15;;;;;;;26.70;3.60;;;;;;;;;;4921431;28;20027;-79
2022/01/09 09:19:41;;;;;;;22.95;3.17;;;;;;;;;;4923085;28;20035;-79
2022/01/09 09:22:07;;;;;;;16.27;2.95;;;;;;;;;;4933789;28;20111;-78
2022/01/09 09:24:35;;;;;;;12.43;1.98;;;;;;;;;;4928183;29;21561;-79
2022/01/09 09:27:00;;;;;;;14.13;2.67;;;;;;;;;;4920080;28;20050;-79
2022/01/09 09:29:26;;;;;;;16.77;2.58;;;;;;;;;;4925249;28;20451;-79
2022/01/09 09:31:53;;;;;;;20.33;3.15;;;;;;;;;;4919983;28;20043;-79
2022/01/09 09:34:19;;;;;;;13.70;2.65;;;;;;;;;;4945250;28;20035;-79
2022/01/09 09:36:45;;;;;;;12.95;1.77;;;;;;;;;;4923137;28;20499;-79
2022/01/09 09:39:12;;;;;;;7.35;1.92;;;;;;;;;;4923238;28;20049;-79
2022/01/09 09:41:41;;;;;;;14.52;2.20;;;;;;;;;;4929707;29;20555;-79
2022/01/09 09:44:09;;;;;;;7.88;1.60;;;;;;;;;;4918541;28;20035;-79
2022/01/09 09:46:35;;;;;;;10.52;2.67;;;;;;;;;;4940408;28;20050;-79
2022/01/09 09:49:01;;;;;;;14.13;2.85;;;;;;;;;;4925020;28;20609;-79
2022/01/09 09:51:29;;;;;;;16.10;2.25;;;;;;;;;;4929231;29;20032;-79
2022/01/09 09:53:55;;;;;;;11.80;2.95;;;;;;;;;;4922796;29;20119;-79
2022/01/09 09:56:21;;;;;;;16.15;2.50;;;;;;;;;;4945000;28;20074;-79
2022/01/09 09:58:49;;;;;;;9.38;2.20;;;;;;;;;;4942623;28;20387;-79
2022/01/09 10:01:23;;;;;;;12.88;1.75;;;;;;;;;;4942314;28;20038;-79
2022/01/09 10:03:53;;;;;;;9.30;1.20;;;;;;;;;;4946377;28;20031;-79
2022/01/09 10:06:40;;;;;;;15.30;2.50;;;;;;;;;;4942927;28;20019;-79
2022/01/09 10:09:07;;;;;;;12.35;2.55;;;;;;;;;;4950004;28;20490;-79
2022/01/09 10:11:43;;;;;;;17.52;2.70;;;;;;;;;;4957018;28;20118;-79
2022/01/09 10:14:14;;;;;;;16.83;2.50;;;;;;;;;;4944435;28;20090;-79
2022/01/09 10:16:40;;;;;;;12.68;2.88;;;;;;;;;;4944730;28;20325;-79
2022/01/09 10:19:06;;;;;;;17.15;2.85;;;;;;;;;;4943228;28;20050;-79
2022/01/09 10:21:32;;;;;;;7.57;1.95;;;;;;;;;;4956612;28;20058;-79
2022/01/09 10:24:04;;;;;;;12.63;2.75;;;;;;;;;;4943707;28;20034;-78
2022/01/09 10:26:31;;;;;;;14.20;2.78;;;;;;;;;;4949401;28;20205;-79
2022/01/09 10:28:58;;;;;;;19.00;3.10;;;;;;;;;;4944812;28;20259;-79
2022/01/09 10:31:26;;;;;;;16.95;2.25;;;;;;;;;;4948445;28;20054;-78
2022/01/09 10:33:58;;;;;;;19.98;2.42;;;;;;;;;;4955133;28;20205;-79
2022/01/09 10:36:34;;;;;;;21.30;2.53;;;;;;;;;;4955044;28;20031;-79
2022/01/09 10:39:04;;;;;;;12.05;2.03;;;;;;;;;;4945206;28;20089;-78
2022/01/09 10:41:51;;;;;;;9.95;2.30;;;;;;;;;;4934564;28;20045;-79
2022/01/09 10:44:18;;;;;;;7.47;1.48;;;;;;;;;;4940180;28;20031;-79
2022/01/09 10:46:54;;;;;;;14.88;2.45;;;;;;;;;;4940764;28;20034;-79
2022/01/09 10:49:39;;;;;;;11.40;2.08;;;;;;;;;;4960162;28;20039;-79
2022/01/09 10:52:28;;;;;;;9.57;2.55;;;;;;;;;;4943840;28;20055;-79
2022/01/09 10:54:58;;;;;;;7.00;2.05;;;;;;;;;;4953129;28;20376;-79
2022/01/09 10:57:28;;;;;;;4.07;1.50;;;;;;;;;;4948200;28;20380;-78
2022/01/09 11:00:03;;;;;;;10.05;1.65;;;;;;;;;;4953978;28;20481;-79
2022/01/09 11:02:29;;;;;;;7.22;2.17;;;;;;;;;;4942801;28;20477;-78
2022/01/09 11:04:55;;;;;;;15.48;2.47;;;;;;;;;;4940742;28;20073;-78
2022/01/09 11:07:22;;;;;;;22.38;2.50;;;;;;;;;;4955568;28;20476;-79
2022/01/09 11:09:50;;;;;;;14.43;4.82;;;;;;;;;;4947050;28;20037;-79
2022/01/09 11:12:18;;;;;;;11.00;2.33;;;;;;;;;;4939766;28;20457;-79
2022/01/09 11:14:45;;;;;;;4.75;1.27;;;;;;;;;;4940305;28;20019;-78
2022/01/09 11:17:11;;;;;;;11.45;2.25;;;;;;;;;;4956264;28;20360;-79
2022/01/09 11:19:38;;;;;;;8.90;2.15;;;;;;;;;;4941337;28;20038;-79
2022/01/09 11:22:06;;;;;;;11.75;2.97;;;;;;;;;;4940224;28;20038;-79
2022/01/09 11:24:32;;;;;;;16.50;2.97;;;;;;;;;;4953556;28;20058;-78
2022/01/09 11:27:01;;;;;;;20.98;2.70;;;;;;;;;;4935743;28;20042;-79
2022/01/09 11:29:31;;;;;;;12.35;2.45;;;;;;;;;;4941751;28;20067;-79
2022/01/09 11:32:03;;;;;;;8.77;2.40;;;;;;;;;;4943357;28;20105;-79
2022/01/09 11:34:35;;;;;;;10.70;2.53;;;;;;;;;;4961556;28;20057;-78
2022/01/09 11:37:19;;;;;;;6.50;1.77;;;;;;;;;;4937049;28;20039;-79
2022/01/09 11:39:45;;;;;;;16.90;2.60;;;;;;;;;;4937508;28;20532;-79
2022/01/09 11:42:12;;;;;;;15.82;2.60;;;;;;;;;;4942836;28;20097;-79
2022/01/09 11:44:48;;;;;;;14.57;2.15;;;;;;;;;;4947993;28;20653;-79
2022/01/09 11:47:15;;;;;;;7.78;2.08;;;;;;;;;;4955926;28;20480;-79
2022/01/09 11:50:01;;;;;;;9.68;1.90;;;;;;;;;;4945239;28;20468;-78
2022/01/09 11:52:28;;;;;;;7.63;1.67;;;;;;;;;;4937248;28;20381;-80
2022/01/09 11:54:55;;;;;;;11.93;2.20;;;;;;;;;;4955415;28;20031;-79
2022/01/09 11:57:35;;;;;;;7.72;1.52;;;;;;;;;;4934608;28;20043;-79
2022/01/09 12:00:01;;;;;;;14.07;2.45;;;;;;;;;;4919396;28;20599;-80
2022/01/09 12:02:29;;;;;;;9.57;2.05;;;;;;;;;;4918443;29;20036;-79
2022/01/09 12:04:56;;;;;;;18.67;2.13;;;;;;;;;;4930116;28;20031;-80
2022/01/09 12:07:34;;;;;;;11.60;1.90;;;;;;;;;;4934444;28;20045;-79
2022/01/09 12:10:01;;;;;;;17.63;4.38;;;;;;;;;;4921288;28;20032;-79
2022/01/09 12:12:33;;;;;;;10.07;2.40;;;;;;;;;;4940346;28;20388;-79
2022/01/09 12:15:04;;;;;;;17.55;2.75;;;;;;;;;;4918676;28;20393;-79
2022/01/09 12:17:45;;;;;;;15.32;2.35;;;;;;;;;;4938402;28;20027;-79
2022/01/09 12:20:14;;;;;;;15.55;2.78;;;;;;;;;;4933014;28;20234;-78
2022/01/09 12:22:45;;;;;;;20.08;2.55;;;;;;;;;;4918969;29;20034;-79
2022/01/09 12:28:02;;;;;;;26.63;2.30;;;;;;;;;;4939805;28;20035;-79
2022/01/09 12:30:32;;;;;;;11.07;1.77;;;;;;;;;;4924701;28;20032;-79
2022/01/09 12:32:58;;;;;;;25.90;3.55;;;;;;;;;;4934598;28;20054;-79
2022/01/09 12:35:25;;;;;;;12.13;2.03;;;;;;;;;;4920864;28;20063;-79
2022/01/09 12:37:53;;;;;;;13.77;3.38;;;;;;;;;;4933808;28;20034;-79
2022/01/09 12:40:20;;;;;;;14.52;2.33;;;;;;;;;;4920823;28;20403;-79
2022/01/09 12:42:46;;;;;;;19.20;2.75;;;;;;;;;;4925017;29;20032;-80
2022/01/09 12:45:22;;;;;;;5.40;1.55;;;;;;;;;;4940561;28;20083;-79
2022/01/09 12:47:48;;;;;;;;;;;;;;;;;;4928058;28;20027;-79
2022/01/09 12:50:14;;;;;;;5.22;1.98;;;;;;;;;;4918078;28;19915;-79
2022/01/09 12:52:41;;;;;;;11.40;2.28;;;;;;;;;;4938391;28;20066;-79
2022/01/09 12:55:08;;;;;;;15.60;2.25;;;;;;;;;;4920980;28;20567;-79
2022/01/09 12:58:00;;;;;;;14.00;1.98;;;;;;;;;;4943060;28;20503;-79
2022/01/09 13:00:27;;;;;;;26.63;3.03;;;;;;;;;;4956080;28;20043;-79
2022/01/09 13:02:54;;;;;;;6.57;1.85;;;;;;;;;;4938374;28;20027;-79
2022/01/09 13:05:27;;;;;;;12.05;2.00;;;;;;;;;;4940847;28;20178;-78
2022/01/09 13:08:00;;;;;;;7.25;1.42;;;;;;;;;;4938464;28;20496;-79
2022/01/09 13:10:33;;;;;;;20.52;3.90;;;;;;;;;;4954478;28;20039;-80
2022/01/09 13:13:00;;;;;;;8.38;2.00;;;;;;;;;;4947450;28;20503;-78
2022/01/09 13:15:36;;;;;;;8.10;1.77;;;;;;;;;;4939776;28;20129;-78
2022/01/09 13:18:02;;;;;;;16.77;2.65;;;;;;;;;;4954377;28;20460;-80
2022/01/09 13:20:29;;;;;;;5.63;1.50;;;;;;;;;;4935828;28;20747;-79
2022/01/09 13:23:06;;;;;;;14.45;2.05;;;;;;;;;;4941914;28;20097;-79
2022/01/09 13:25:45;;;;;;;8.82;1.60;;;;;;;;;;4931438;28;20539;-79
2022/01/09 13:28:21;;;;;;;10.27;1.90;;;;;;;;;;4931849;28;20035;-79
2022/01/09 13:30:47;;;;;;;9.65;2.10;;;;;;;;;;4951371;28;20054;-79
2022/01/09 13:33:14;;;;;;;16.13;1.88;;;;;;;;;;4934958;28;20051;-79
2022/01/09 13:35:40;;;;;;;6.72;0.60;;;;;;;;;;4938180;28;20062;-79
2022/01/09 13:38:06;;;;;;;13.13;2.08;;;;;;;;;;4953704;28;20121;-79
2022/01/09 13:40:32;;;;;;;11.40;2.28;;;;;;;;;;4943291;28;20070;-80
2022/01/09 13:42:58;;;;;;;8.23;2.22;;;;;;;;;;4939352;28;20526;-80
2022/01/09 13:45:25;;;;;;;5.05;1.27;;;;;;;;;;4937478;28;20023;-79
2022/01/09 13:47:56;;;;;;;14.93;2.10;;;;;;;;;;4934127;28;20392;-79
2022/01/09 13:50:24;;;;;;;6.13;2.03;;;;;;;;;;4934668;28;20035;-79
2022/01/09 13:52:51;;;;;;;19.58;3.67;;;;;;;;;;4948922;28;20035;-80
2022/01/09 13:55:27;;;;;;;7.28;1.50;;;;;;;;;;4932443;28;20155;-80
2022/01/09 13:57:55;;;;;;;9.48;2.40;;;;;;;;;;4928136;28;20050;-80
2022/01/09 14:00:24;;;;;;;11.13;0.95;;;;;;;;;;4923531;28;20476;-81
2022/01/09 14:02:51;;;;;;;13.23;3.00;;;;;;;;;;4926048;28;20023;-80
2022/01/09 14:05:20;;;;;;;15.65;2.15;;;;;;;;;;4929208;28;20039;-80
2022/01/09 14:07:47;;;;;;;8.52;1.70;;;;;;;;;;4930528;28;20436;-79
2022/01/09 14:10:13;;;;;;;9.48;1.30;;;;;;;;;;4920926;29;20039;-80
2022/01/09 14:12:39;;;;;;;13.23;1.83;;;;;;;;;;4920629;28;20419;-79
2022/01/09 14:15:18;;;;;;;12.13;2.20;;;;;;;;;;4916018;28;20051;-79
2022/01/09 14:17:46;;;;;;;8.07;1.70;;;;;;;;;;4931239;28;20039;-80
2022/01/09 14:20:19;;;;;;;8.85;2.28;;;;;;;;;;4928385;28;20103;-79
2022/01/09 14:50:44;;;;;;;5.40;1.07;;;;;;;;;;4918355;28;20275;-80
2022/01/09 14:53:10;;;;;;;11.48;1.77;;;;;;;;;;4931623;28;20625;-80
2022/01/09 14:55:36;;;;;;;5.40;1.70;;;;;;;;;;4916692;29;20099;-80
2022/01/09 14:58:16;;;;;;;15.35;1.80;;;;;;;;;;4925149;28;20446;-80
2022/01/09 15:00:43;;;;;;;10.88;1.95;;;;;;;;;;4919311;29;20642;-80
2022/01/09 15:03:09;;;;;;;11.48;2.15;;;;;;;;;;4912882;28;20043;-81
2022/01/09 15:05:37;;;;;;;9.02;1.77;;;;;;;;;;4915387;28;20122;-79
2022/01/09 15:08:03;;;;;;;6.63;1.33;;;;;;;;;;4919117;29;20032;-80
2022/01/09 15:10:29;;;;;;;8.90;1.55;;;;;;;;;;4915030;28;20040;-79
2022/01/09 15:12:56;;;;;;;12.30;1.48;;;;;;;;;;4928884;29;20050;-79